createdAt,value
2023-02-24T00:02:01.700Z,1.00
2023-02-24T00:04:35.442Z,0.90
2023-02-24T00:07:03.104Z,1.27
2023-02-24T00:09:31.620Z,1.63
2023-02-24T00:12:14.021Z,1.40
2023-02-24T00:14:44.728Z,0.77
2023-02-24T00:17:16.015Z,1.20
2023-02-24T00:19:43.725Z,1.40
2023-02-24T00:22:11.297Z,1.00
2023-02-24T00:24:38.866Z,1.00
2023-02-24T00:27:13.726Z,0.83
2023-02-24T00:29:42.425Z,0.87
2023-02-24T00:32:13.647Z,1.13
2023-02-24T00:34:41.494Z,1.20
2023-02-24T00:37:09.527Z,1.00
2023-02-24T00:39:42.012Z,0.90
2023-02-24T00:42:11.965Z,1.10
2023-02-24T00:44:47.013Z,1.40
2023-02-24T00:47:17.139Z,1.40
2023-02-24T00:49:44.900Z,1.13
2023-02-24T00:52:20.648Z,0.77
2023-02-24T00:54:49.883Z,1.33
2023-02-24T00:57:18.754Z,1.23
2023-02-24T00:59:51.569Z,1.17
2023-02-24T01:02:19.174Z,1.00
2023-02-24T01:04:46.875Z,1.23
2023-02-24T01:07:15.700Z,1.17
2023-02-24T01:09:44.116Z,1.33
2023-02-24T01:12:31.546Z,1.20
2023-02-24T01:14:59.008Z,0.93
2023-02-24T01:17:26.446Z,1.03
2023-02-24T01:20:00.497Z,0.93
2023-02-24T01:22:27.786Z,1.00
2023-02-24T01:24:55.100Z,1.27
2023-02-24T01:27:22.505Z,1.20
2023-02-24T01:29:50.052Z,1.07
2023-02-24T01:32:21.712Z,1.10
2023-02-24T01:34:52.740Z,1.20
2023-02-24T01:37:21.311Z,1.00
2023-02-24T01:39:50.370Z,1.07
2023-02-24T01:42:23.526Z,0.90
2023-02-24T01:44:52.161Z,1.17
2023-02-24T01:47:21.358Z,1.00
2023-02-24T01:49:53.039Z,1.37
2023-02-24T01:52:24.452Z,1.27
2023-02-24T01:55:09.398Z,1.27
2023-02-24T01:57:39.197Z,1.50
2023-02-24T02:00:12.439Z,1.23
2023-02-24T02:02:53.144Z,1.40
2023-02-24T02:05:21.360Z,0.70
2023-02-24T02:07:50.348Z,1.30
2023-02-24T02:10:18.754Z,1.10
2023-02-24T02:12:46.554Z,1.23
2023-02-24T02:15:20.465Z,1.20
2023-02-24T02:18:20.852Z,1.10
2023-02-24T02:21:25.553Z,1.10
2023-02-24T02:24:24.775Z,1.17
2023-02-24T02:27:21.306Z,1.43
2023-02-24T02:29:56.461Z,1.30
2023-02-24T02:32:43.967Z,1.70
2023-02-24T02:35:25.240Z,1.10
2023-02-24T02:38:15.417Z,1.20
2023-02-24T02:41:02.797Z,1.10
2023-02-24T02:44:02.921Z,0.97
2023-02-24T02:49:32.500Z,1.47
2023-02-24T02:52:15.622Z,1.33
2023-02-24T02:54:56.357Z,1.10
2023-02-24T02:57:30.474Z,1.50
2023-02-24T03:00:14.243Z,1.43
2023-02-24T03:02:49.845Z,1.10
2023-02-24T03:05:21.670Z,1.50
2023-02-24T03:07:54.755Z,1.43
2023-02-24T03:10:34.550Z,1.20
2023-02-24T03:13:05.918Z,1.30
2023-02-24T03:15:34.614Z,1.30
2023-02-24T03:18:12.265Z,1.40
2023-02-24T03:20:51.941Z,1.30
2023-02-24T03:23:29.324Z,1.20
2023-02-24T03:26:06.304Z,1.30
2023-02-24T03:28:39.979Z,1.50
2023-02-24T03:31:19.155Z,1.40
2023-02-24T03:34:12.370Z,1.50
2023-02-24T03:36:40.918Z,1.23
2023-02-24T03:39:12.470Z,1.30
2023-02-24T03:42:02.933Z,1.10
2023-02-24T03:44:32.812Z,1.60
2023-02-24T03:47:02.514Z,1.10
2023-02-24T03:49:30.395Z,1.27
2023-02-24T03:52:08.970Z,1.40
2023-02-24T03:55:18.679Z,1.47
2023-02-24T03:57:55.676Z,1.13
2023-02-24T04:03:27.978Z,1.10
2023-02-24T04:06:15.795Z,1.40
2023-02-24T04:08:48.944Z,1.40
2023-02-24T04:11:30.289Z,1.63
2023-02-24T04:14:06.853Z,1.40
2023-02-24T04:16:46.693Z,1.20
2023-02-24T04:19:20.794Z,2.00
2023-02-24T04:21:51.409Z,1.50
2023-02-24T04:24:29.208Z,1.42
2023-02-24T04:27:01.105Z,1.30
2023-02-24T04:29:37.412Z,1.47
2023-02-24T04:32:10.175Z,1.30
2023-02-24T04:34:40.559Z,1.25
2023-02-24T04:37:09.187Z,1.63
2023-02-24T04:39:39.173Z,1.40
2023-02-24T04:42:11.950Z,2.10
2023-02-24T04:44:39.218Z,1.77
2023-02-24T04:47:07.445Z,1.63
2023-02-24T04:49:34.736Z,1.30
2023-02-24T04:52:02.047Z,1.63
2023-02-24T04:54:29.868Z,1.57
2023-02-24T04:56:59.197Z,1.70
2023-02-24T04:59:29.252Z,1.77
2023-02-24T05:02:01.566Z,1.43
2023-02-24T05:04:31.655Z,1.52
2023-02-24T05:06:59.265Z,1.60
2023-02-24T05:09:30.596Z,1.63
2023-02-24T05:11:58.315Z,1.27
2023-02-24T05:14:25.621Z,1.63
2023-02-24T05:16:53.273Z,1.47
2023-02-24T05:19:39.620Z,1.40
2023-02-24T05:22:11.806Z,1.73
2023-02-24T05:24:41.281Z,1.30
2023-02-24T05:27:09.230Z,1.60
2023-02-24T05:29:37.978Z,1.87
2023-02-24T05:32:05.931Z,2.33
2023-02-24T05:34:33.899Z,2.23
2023-02-24T05:37:10.335Z,1.60
2023-02-24T05:39:38.179Z,1.70
2023-02-24T05:42:07.119Z,1.83
2023-02-24T05:44:35.854Z,1.47
2023-02-24T05:47:05.694Z,1.70
2023-02-24T05:49:35.451Z,1.80
2023-02-24T05:52:09.774Z,1.53
2023-02-24T05:54:45.188Z,2.30
2023-02-24T05:57:21.421Z,2.20
2023-02-24T05:59:51.187Z,2.77
2023-02-24T06:02:27.998Z,2.70
2023-02-24T06:04:55.909Z,2.57
2023-02-24T06:07:28.520Z,2.80
2023-02-24T06:09:58.302Z,3.65
2023-02-24T06:12:29.009Z,3.80
2023-02-24T06:14:58.408Z,3.73
2023-02-24T06:17:26.572Z,3.43
2023-02-24T06:19:54.399Z,3.70
2023-02-24T06:22:25.750Z,4.50
2023-02-24T06:24:54.700Z,4.27
2023-02-24T06:27:25.233Z,4.70
2023-02-24T06:29:54.431Z,5.03
2023-02-24T06:32:25.118Z,4.23
2023-02-24T06:34:54.238Z,4.00
2023-02-24T06:37:23.344Z,4.83
2023-02-24T06:39:51.093Z,4.50
2023-02-24T06:42:18.468Z,4.60
2023-02-24T06:44:46.919Z,4.63
2023-02-24T06:47:18.141Z,4.90
2023-02-24T06:49:45.829Z,5.03
2023-02-24T06:52:18.787Z,5.03
2023-02-24T06:54:48.981Z,4.93
2023-02-24T06:57:16.350Z,5.30
2023-02-24T06:59:43.808Z,5.53
2023-02-24T07:02:11.683Z,5.33
2023-02-24T07:04:44.142Z,5.10
2023-02-24T07:07:14.656Z,4.57
2023-02-24T07:09:45.612Z,5.70
2023-02-24T07:12:13.400Z,4.67
2023-02-24T07:14:40.889Z,4.97
2023-02-24T07:17:08.782Z,4.90
2023-02-24T07:19:36.989Z,4.50
2023-02-24T07:22:04.599Z,5.30
2023-02-24T07:24:36.578Z,5.77
2023-02-24T07:27:06.797Z,5.78
2023-02-24T07:29:35.039Z,5.07
2023-02-24T07:32:05.923Z,5.00
2023-02-24T07:34:34.742Z,4.90
2023-02-24T07:37:08.482Z,4.80
2023-02-24T07:39:37.798Z,5.03
2023-02-24T07:42:06.556Z,4.53
2023-02-24T07:44:44.794Z,5.23
2023-02-24T07:47:12.163Z,5.27
2023-02-24T07:49:41.192Z,5.97
2023-02-24T07:52:08.985Z,5.50
2023-02-24T07:54:37.285Z,5.07
2023-02-24T07:57:06.596Z,5.83
2023-02-24T07:59:38.181Z,5.83
2023-02-24T08:02:07.992Z,5.27
2023-02-24T08:04:39.819Z,5.10
2023-02-24T08:07:14.572Z,4.80
2023-02-24T08:09:45.423Z,4.53
2023-02-24T08:12:21.998Z,5.30
2023-02-24T08:14:52.293Z,4.33
2023-02-24T08:17:22.327Z,4.63
2023-02-24T08:19:56.164Z,4.50
2023-02-24T08:22:24.418Z,5.37
2023-02-24T08:24:57.031Z,4.20
2023-02-24T08:27:25.895Z,4.22
2023-02-24T08:30:04.266Z,4.27
2023-02-24T08:32:37.401Z,4.67
2023-02-24T08:35:19.883Z,4.63
2023-02-24T08:37:50.196Z,4.55
2023-02-24T08:40:33.770Z,4.90
2023-02-24T08:43:19.688Z,4.33
2023-02-24T08:46:21.613Z,4.90
2023-02-24T08:48:56.990Z,4.07
2023-02-24T08:51:37.213Z,4.70
2023-02-24T08:54:11.724Z,4.90
2023-02-24T08:56:43.890Z,5.13
2023-02-24T08:59:29.512Z,4.63
2023-02-24T09:02:36.071Z,4.70
2023-02-24T09:05:18.438Z,4.87
2023-02-24T09:07:56.848Z,4.20
2023-02-24T09:11:04.107Z,4.50
2023-02-24T09:14:01.457Z,3.00
2023-02-24T09:16:31.421Z,3.33
2023-02-24T09:19:39.127Z,3.20
2023-02-24T09:22:33.687Z,2.60
2023-02-24T09:25:19.960Z,2.37
2023-02-24T09:28:14.942Z,2.67
2023-02-24T09:30:58.136Z,2.67
2023-02-24T09:33:40.538Z,2.70
2023-02-24T09:36:14.558Z,3.13
2023-02-24T09:39:05.209Z,3.58
2023-02-24T09:42:14.038Z,3.80
2023-02-24T09:44:49.579Z,4.00
2023-02-24T09:48:04.659Z,4.10
2023-02-24T09:51:02.042Z,4.65
2023-02-24T09:53:44.132Z,5.22
2023-02-24T09:56:27.500Z,4.95
2023-02-24T09:59:26.680Z,5.32
2023-02-24T10:02:30.347Z,5.10
2023-02-24T10:05:25.297Z,4.43
2023-02-24T10:08:00.937Z,4.45
2023-02-24T10:10:36.739Z,4.75
2023-02-24T10:13:39.178Z,4.80
2023-02-24T10:16:42.014Z,5.38
2023-02-24T10:19:31.762Z,5.05
2023-02-24T10:22:08.343Z,5.10
2023-02-24T10:24:47.669Z,5.40
2023-02-24T10:27:27.800Z,5.40
2023-02-24T10:30:21.085Z,5.53
2023-02-24T10:33:00.267Z,4.45
2023-02-24T10:35:34.092Z,5.00
2023-02-24T10:38:06.425Z,5.50
2023-02-24T10:40:45.306Z,5.45
2023-02-24T10:43:18.701Z,4.68
2023-02-24T10:45:47.859Z,5.28
2023-02-24T10:48:40.545Z,5.72
2023-02-24T10:51:20.679Z,4.85
2023-02-24T10:54:10.127Z,5.25
2023-02-24T10:56:55.600Z,5.90
2023-02-24T10:59:48.486Z,5.05
2023-02-24T11:02:46.097Z,5.00
2023-02-24T11:05:32.691Z,6.10
2023-02-24T11:08:26.354Z,5.25
2023-02-24T11:10:59.172Z,5.40
2023-02-24T11:13:45.484Z,5.10
2023-02-24T11:16:34.547Z,6.05
2023-02-24T11:19:03.593Z,5.82
2023-02-24T11:21:32.220Z,6.50
2023-02-24T11:24:02.977Z,5.28
2023-02-24T11:26:41.734Z,5.22
2023-02-24T11:29:33.931Z,5.65
2023-02-24T11:32:17.207Z,4.43
2023-02-24T11:35:06.080Z,4.45
2023-02-24T11:37:43.332Z,4.30
2023-02-24T11:40:27.096Z,2.42
2023-02-24T11:43:10.758Z,2.25
2023-02-24T11:45:47.399Z,1.85
2023-02-24T11:48:32.402Z,2.00
2023-02-24T11:51:07.575Z,2.50
2023-02-24T11:53:37.104Z,1.92
2023-02-24T11:56:29.407Z,2.72
2023-02-24T11:59:31.210Z,1.80
2023-02-24T12:02:28.205Z,2.00
2023-02-24T12:05:12.030Z,2.20
2023-02-24T12:07:48.770Z,2.45
2023-02-24T12:10:32.595Z,2.75
2023-02-24T12:13:14.263Z,2.30
2023-02-24T12:16:08.832Z,2.55
2023-02-24T12:18:44.288Z,2.22
2023-02-24T12:21:40.152Z,2.95
2023-02-24T12:24:12.577Z,2.80
2023-02-24T12:26:53.215Z,2.60
2023-02-24T12:29:29.945Z,2.42
2023-02-24T12:32:22.590Z,2.00
2023-02-24T12:35:03.575Z,2.25
2023-02-24T12:37:53.513Z,2.28
2023-02-24T12:40:51.648Z,2.28
2023-02-24T12:43:41.627Z,2.00
2023-02-24T12:46:34.848Z,2.25
2023-02-24T12:49:21.426Z,1.83
2023-02-24T12:52:21.220Z,2.40
2023-02-24T12:55:28.842Z,1.52
2023-02-24T12:58:16.220Z,1.75
2023-02-24T13:01:05.146Z,1.70
2023-02-24T13:03:52.498Z,2.08
2023-02-24T13:07:10.014Z,1.70
2023-02-24T13:10:19.364Z,1.95
2023-02-24T13:13:34.353Z,2.10
2023-02-24T13:16:07.675Z,1.88
2023-02-24T13:18:43.954Z,2.53
2023-02-24T13:21:27.736Z,2.15
2023-02-24T13:26:50.851Z,2.38
2023-02-24T13:29:32.865Z,1.95
2023-02-24T13:32:11.808Z,2.30
2023-02-24T13:34:55.813Z,2.17
2023-02-24T13:37:44.340Z,2.10
2023-02-24T13:40:35.417Z,2.17
2023-02-24T13:43:25.330Z,1.80
2023-02-24T13:46:04.713Z,2.40
2023-02-24T13:49:06.881Z,2.33
2023-02-24T13:52:23.760Z,2.22
2023-02-24T13:55:18.148Z,1.95
2023-02-24T13:58:25.555Z,2.25
2023-02-24T14:01:13.489Z,2.47
2023-02-24T14:03:45.311Z,2.30
2023-02-24T14:09:26.723Z,1.90
2023-02-24T14:12:09.702Z,2.08
2023-02-24T14:15:03.155Z,2.50
2023-02-24T14:17:34.331Z,2.50
2023-02-24T14:20:07.856Z,2.97
2023-02-24T14:22:37.692Z,1.90
2023-02-24T14:25:06.875Z,2.35
2023-02-24T14:27:34.311Z,2.88
2023-02-24T14:30:01.616Z,2.33
2023-02-24T14:32:29.261Z,2.72
2023-02-24T14:34:57.517Z,3.10
2023-02-24T14:37:28.812Z,2.70
2023-02-24T14:40:01.731Z,3.30
2023-02-24T14:42:30.019Z,2.67
2023-02-24T14:44:59.469Z,2.88
2023-02-24T14:47:28.931Z,3.13
2023-02-24T14:50:02.634Z,3.35
2023-02-24T14:52:41.999Z,3.35
2023-02-24T14:55:23.306Z,2.97
2023-02-24T14:58:04.192Z,2.30
2023-02-24T15:01:05.421Z,1.80
2023-02-24T15:03:48.697Z,1.90
2023-02-24T15:06:34.029Z,2.00
2023-02-24T15:09:30.601Z,2.17
2023-02-24T15:13:01.132Z,3.10
2023-02-24T15:15:43.880Z,2.93
2023-02-24T15:18:34.741Z,2.43
2023-02-24T15:21:08.562Z,2.50
2023-02-24T15:23:43.617Z,2.10
2023-02-24T15:27:22.748Z,2.95
2023-02-24T15:30:08.036Z,3.83
2023-02-24T15:35:46.314Z,2.10
2023-02-24T15:38:57.812Z,2.37
2023-02-24T15:41:45.489Z,2.43
2023-02-24T15:44:38.282Z,2.17
2023-02-24T15:48:06.594Z,1.90
2023-02-24T15:50:42.580Z,2.10
2023-02-24T15:53:28.093Z,2.27
2023-02-24T15:56:23.631Z,2.43
2023-02-24T15:58:54.314Z,2.10
2023-02-24T16:01:30.454Z,2.33
2023-02-24T16:04:04.877Z,2.27
2023-02-24T16:06:34.144Z,2.43
2023-02-24T16:09:05.406Z,2.33
2023-02-24T16:11:38.812Z,2.10
2023-02-24T16:14:06.090Z,2.90
2023-02-24T16:16:33.771Z,3.13
2023-02-24T16:19:01.196Z,2.63
2023-02-24T16:21:28.641Z,2.70
2023-02-24T16:23:57.031Z,2.67
2023-02-24T16:26:25.565Z,3.10
2023-02-24T16:28:57.761Z,2.67
2023-02-24T16:31:26.384Z,1.92
2023-02-24T16:33:55.797Z,2.57
2023-02-24T16:36:28.340Z,3.43
2023-02-24T16:41:24.025Z,1.97
2023-02-24T16:43:51.882Z,2.03
2023-02-24T16:46:23.067Z,2.90
2023-02-24T16:48:53.689Z,2.40
2023-02-24T16:51:22.388Z,1.90
2023-02-24T16:53:49.745Z,1.67
2023-02-24T16:56:17.088Z,1.43
2023-02-24T16:58:44.448Z,1.27
2023-02-24T17:01:19.735Z,1.83
2023-02-24T17:03:51.734Z,2.00
2023-02-24T17:06:21.914Z,1.42
2023-02-24T17:08:50.082Z,2.43
2023-02-24T17:11:20.523Z,2.20
2023-02-24T17:13:47.939Z,1.53
2023-02-24T17:16:15.185Z,1.57
2023-02-24T17:18:42.646Z,1.83
2023-02-24T17:21:15.011Z,2.70
2023-02-24T17:23:45.993Z,2.15
2023-02-24T17:26:16.593Z,2.60
2023-02-24T17:28:44.468Z,2.23
2023-02-24T17:31:12.606Z,2.10
2023-02-24T17:33:40.048Z,1.93
2023-02-24T17:36:10.576Z,2.17
2023-02-24T17:38:38.286Z,1.93
2023-02-24T17:41:05.997Z,2.00
2023-02-24T17:43:33.733Z,1.43
2023-02-24T17:46:04.454Z,2.70
2023-02-24T17:48:33.248Z,1.75
2023-02-24T17:51:00.488Z,1.70
2023-02-24T17:53:28.617Z,1.80
2023-02-24T17:56:06.471Z,1.60
2023-02-24T17:58:34.268Z,1.87
2023-02-24T18:01:02.611Z,2.30
2023-02-24T18:03:31.411Z,2.07
2023-02-24T18:06:06.300Z,1.77
2023-02-24T18:08:35.374Z,1.83
2023-02-24T18:11:03.725Z,2.00
2023-02-24T18:13:32.135Z,2.07
2023-02-24T18:16:00.345Z,2.00
2023-02-24T18:18:30.418Z,2.50
2023-02-24T18:21:02.798Z,2.23
2023-02-24T18:23:30.537Z,1.90
2023-02-24T18:26:02.909Z,2.37
2023-02-24T18:28:31.785Z,2.00
2023-02-24T18:31:00.840Z,2.43
2023-02-24T18:33:28.428Z,2.10
2023-02-24T18:36:03.676Z,2.50
2023-02-24T18:38:32.375Z,2.10
2023-02-24T18:41:04.497Z,1.80
2023-02-24T18:43:32.843Z,1.48
2023-02-24T18:46:07.634Z,2.30
2023-02-24T18:48:35.866Z,1.63
2023-02-24T18:51:03.440Z,2.33
2023-02-24T18:53:37.100Z,2.23
2023-02-24T18:56:07.188Z,1.50
2023-02-24T18:58:37.303Z,1.90
2023-02-24T19:01:16.042Z,2.37
2023-02-24T19:03:43.949Z,2.07
2023-02-24T19:06:12.504Z,2.50
2023-02-24T19:08:41.629Z,2.00
2023-02-24T19:11:11.190Z,2.33
2023-02-24T19:13:45.417Z,2.43
2023-02-24T19:16:13.332Z,1.93
2023-02-24T19:18:40.838Z,2.30
2023-02-24T19:21:09.537Z,2.73
2023-02-24T19:23:37.740Z,2.60
2023-02-24T19:26:05.470Z,2.30
2023-02-24T19:28:32.771Z,2.60
2023-02-24T19:31:00.225Z,2.10
2023-02-24T19:33:28.897Z,2.40
2023-02-24T19:36:00.371Z,1.77
2023-02-24T19:38:28.674Z,1.77
2023-02-24T19:41:00.512Z,1.80
2023-02-24T19:43:28.740Z,2.20
2023-02-24T19:45:57.131Z,1.90
2023-02-24T19:48:24.626Z,2.10
2023-02-24T19:50:52.563Z,1.87
2023-02-24T19:53:20.729Z,2.47
2023-02-24T19:55:50.665Z,4.33
2023-02-24T19:58:18.152Z,4.10
2023-02-24T20:00:48.627Z,3.93
2023-02-24T20:03:16.356Z,3.60
2023-02-24T20:05:43.911Z,3.93
2023-02-24T20:08:11.292Z,4.00
2023-02-24T20:10:38.750Z,3.90
2023-02-24T20:13:06.153Z,4.17
2023-02-24T20:15:34.513Z,2.80
2023-02-24T20:18:04.853Z,3.40
2023-02-24T20:20:38.719Z,2.40
2023-02-24T20:23:06.046Z,2.40
2023-02-24T20:25:33.444Z,3.07
2023-02-24T20:28:02.121Z,3.43
2023-02-24T20:30:29.452Z,2.60
2023-02-24T20:32:56.794Z,2.63
2023-02-24T20:35:26.444Z,2.87
2023-02-24T20:37:53.783Z,2.27
2023-02-24T20:40:21.034Z,2.40
2023-02-24T20:42:48.340Z,2.63
2023-02-24T20:45:16.441Z,2.23
2023-02-24T20:47:43.746Z,1.80
2023-02-24T20:50:11.182Z,2.90
2023-02-24T20:52:38.625Z,3.27
2023-02-24T20:55:06.322Z,2.03
2023-02-24T20:57:33.663Z,2.07
2023-02-24T21:00:07.353Z,2.33
2023-02-24T21:02:36.661Z,2.20
2023-02-24T21:05:04.072Z,2.53
2023-02-24T21:07:32.082Z,1.97
2023-02-24T21:09:59.409Z,2.37
2023-02-24T21:12:26.689Z,1.80
2023-02-24T21:14:54.020Z,2.03
2023-02-24T21:17:21.429Z,3.20
2023-02-24T21:19:49.964Z,2.70
2023-02-24T21:22:18.031Z,2.57
2023-02-24T21:24:45.591Z,2.57
2023-02-24T21:27:13.345Z,2.27
2023-02-24T21:29:40.620Z,3.33
2023-02-24T21:32:07.999Z,3.00
2023-02-24T21:34:35.500Z,1.60
2023-02-24T21:37:02.976Z,2.30
2023-02-24T21:39:30.271Z,2.13
2023-02-24T21:41:57.618Z,2.23
2023-02-24T21:44:25.816Z,2.60
2023-02-24T21:46:53.199Z,2.87
2023-02-24T21:49:20.620Z,2.30
2023-02-24T21:51:50.770Z,2.30
2023-02-24T21:54:18.555Z,2.53
2023-02-24T21:56:45.899Z,1.90
2023-02-24T21:59:13.237Z,2.53
2023-02-24T22:01:43.427Z,2.33
2023-02-24T22:04:18.263Z,2.63
2023-02-24T22:06:45.871Z,2.00
2023-02-24T22:09:20.698Z,2.13
2023-02-24T22:11:49.453Z,3.03
2023-02-24T22:14:17.325Z,2.10
2023-02-24T22:16:45.339Z,2.83
2023-02-24T22:19:12.968Z,2.30
2023-02-24T22:21:42.654Z,2.87
2023-02-24T22:24:13.594Z,3.40
2023-02-24T22:26:41.596Z,1.93
2023-02-24T22:29:09.459Z,2.23
2023-02-24T22:31:38.433Z,4.90
2023-02-24T22:34:06.548Z,6.80
2023-02-24T22:36:37.759Z,6.93
2023-02-24T22:39:09.475Z,6.07
2023-02-24T22:41:44.823Z,5.90
2023-02-24T22:44:13.365Z,6.47
2023-02-24T22:46:40.661Z,6.47
2023-02-24T22:49:08.129Z,6.80
2023-02-24T22:51:35.704Z,7.83
2023-02-24T22:54:03.989Z,7.90
2023-02-24T22:56:31.805Z,8.73
2023-02-24T22:59:00.935Z,8.10
2023-02-24T23:01:31.009Z,8.03
2023-02-24T23:04:03.769Z,7.93
2023-02-24T23:06:32.042Z,8.07
2023-02-24T23:09:00.946Z,7.43
2023-02-24T23:11:37.001Z,7.00
2023-02-24T23:14:06.233Z,6.43
2023-02-24T23:16:35.015Z,6.23
2023-02-24T23:19:07.880Z,5.93
2023-02-24T23:21:41.862Z,6.30
2023-02-24T23:24:11.264Z,5.73
2023-02-24T23:26:57.762Z,6.23
2023-02-24T23:29:26.780Z,4.60
2023-02-24T23:31:54.455Z,4.03
2023-02-24T23:34:21.858Z,4.03
2023-02-24T23:36:49.305Z,4.77
2023-02-24T23:39:21.590Z,4.60
2023-02-24T23:41:49.615Z,4.30
2023-02-24T23:44:17.006Z,5.43
2023-02-24T23:46:44.622Z,5.00
2023-02-24T23:49:11.915Z,3.73
2023-02-24T23:51:48.115Z,5.00
2023-02-24T23:54:20.520Z,4.77
2023-02-24T23:56:47.913Z,5.27
2023-02-24T23:59:18.810Z,4.47
